Terminal Aerodrome Forecast
Issued by NWS

Home | Current Version | Previous Version | Text Only | Print | Product List | Glossary On
Versions: 1 2 3 4 5 6 7 8 9 10 11 12 13 14 15 16 17 18 19 20 21 22 23
000
FTUS45 KTWC 301800 AAA
TAFOLS
TAF AMD
KOLS 301852Z 3019/3118 18008KT 4SM -SHRA BR SCT015 OVC025
      TEMPO 3019/3021 2SM SHRA BR SCT010 BKN014
     FM302100 22010KT 4SM -SHRA BR SCT015 BKN030 OVC040
     FM310200 25008KT P6SM -SHRA SCT025 OVC035
     FM310700 23008KT P6SM VCSH SCT035 BKN050 OVC070=

USA.gov is the U.S. government's official web portal to all federal, state and local government web resources and services.